EmailTwitter


Observations de surface / Québec / CYHU (71371)

Régions: Québec | Canada | États-Unis | Europe | France | UK | Ailleurs
Station
Affichage
Infos & localisation pour CYHU (71371) | Aide pour décoder les METARs

Observations prises le 2019-01-18 à 15H00 UTC à MONTREAL/ST HUBE, QB (CYHU)

Etat du ciel: couvert.

Obstacle(s) à la visibilité: faible neige.

Température: -14.0 Celsius

Point de rosée: -17.0 Celsius

Humidité relative: 78%

Facteur vent: -20.

Vents: Nord-nord-est à 11 km/h ou 6 noeuds.

Pression au niveau moyen de la mer: 101.72 kilopascals.

Calage altimétrique: 101.69 kilopascals ou 30.03 pouces de mercure.

Visibilité horizontale: 3.00 milles terrestres ou 4.80 kilomètres.

Hauteur du plafond: 1036 mètres ( 3400 pieds ).

Observation METAR:

CYHU 181500Z AUTO 02006KT 3SM -SN OVC034 M14/M17 A3003 RMK SLP172=